createdAt,value
2017-04-21T00:00:09.963Z,56.29
2017-04-21T00:01:09.956Z,56.29
2017-04-21T00:02:09.940Z,56.29
2017-04-21T00:03:09.930Z,56.96
2017-04-21T00:04:09.619Z,56.77
2017-04-21T00:05:09.907Z,56.96
2017-04-21T00:06:09.595Z,57.24
2017-04-21T00:07:09.888Z,56.93
2017-04-21T00:08:09.885Z,57.15
2017-04-21T00:09:09.865Z,56.96
2017-04-21T00:10:09.854Z,57.43
2017-04-21T00:11:09.843Z,56.77
2017-04-21T00:12:09.832Z,57.53
2017-04-21T00:13:09.822Z,57.34
2017-04-21T00:14:09.811Z,57.53
2017-04-21T00:15:09.801Z,57.72
2017-04-21T00:16:09.789Z,57.88
2017-04-21T00:17:09.778Z,57.43
2017-04-21T00:18:09.768Z,57.62
2017-04-21T00:19:09.765Z,57.88
2017-04-21T00:20:09.747Z,57.72
2017-04-21T00:21:09.736Z,57.72
2017-04-21T00:22:09.724Z,57.53
2017-04-21T00:23:09.712Z,57.72
2017-04-21T00:24:09.704Z,57.62
2017-04-21T00:25:09.690Z,57.62
2017-04-21T00:26:09.682Z,57.72
2017-04-21T00:27:09.672Z,57.53
2017-04-21T00:28:09.659Z,57.06
2017-04-21T00:29:09.649Z,57.24
2017-04-21T00:30:09.637Z,57.62
2017-04-21T00:31:09.660Z,57.53
2017-04-21T00:32:09.617Z,56.87
2017-04-21T00:33:09.605Z,56.96
2017-04-21T00:34:09.593Z,57.06
2017-04-21T00:35:09.584Z,57.43
2017-04-21T00:36:09.269Z,57.34
2017-04-21T00:37:09.560Z,57.72
2017-04-21T00:38:09.549Z,57.72
2017-04-21T00:39:09.542Z,57.72
2017-04-21T00:40:09.225Z,57.53
2017-04-21T00:41:09.517Z,57.72
2017-04-21T00:42:09.505Z,57.34
2017-04-21T00:43:09.494Z,57.72
2017-04-21T00:44:09.486Z,57.62
2017-04-21T00:45:09.722Z,57.24
2017-04-21T00:46:09.160Z,57.53
2017-04-21T00:47:09.150Z,57.24
2017-04-21T00:48:09.449Z,57.34
2017-04-21T00:49:09.430Z,56.77
2017-04-21T00:50:09.669Z,57.24
2017-04-21T00:51:09.407Z,57.06
2017-04-21T00:52:09.397Z,56.96
2017-04-21T00:53:09.082Z,57.34
2017-04-21T00:54:09.377Z,56.77
2017-04-21T00:55:09.665Z,57.43
2017-04-21T00:56:09.355Z,57.15
2017-04-21T00:57:09.343Z,57.43
2017-04-21T00:58:09.332Z,57.24
2017-04-21T00:59:09.324Z,57.34
2017-04-21T01:00:09.566Z,57.43
2017-04-21T01:01:09.304Z,57.43
2017-04-21T01:02:09.289Z,57.53
2017-04-21T01:03:09.279Z,57.62
2017-04-21T01:04:09.444Z,57.62
2017-04-21T01:05:09.509Z,57.62
2017-04-21T01:06:09.245Z,57.24
2017-04-21T01:07:09.235Z,57.24
2017-04-21T01:08:09.230Z,57.24
2017-04-21T01:09:09.214Z,56.96
2017-04-21T01:10:09.453Z,57.24
2017-04-21T01:11:09.191Z,57.06
2017-04-21T01:12:09.185Z,56.96
2017-04-21T01:13:09.189Z,56.96
2017-04-21T01:14:09.157Z,56.96
2017-04-21T01:15:09.450Z,57.06
2017-04-21T01:16:09.139Z,57.34
2017-04-21T01:17:09.129Z,57.24
2017-04-21T01:18:09.120Z,57.34
2017-04-21T01:19:09.104Z,56.96
2017-04-21T01:20:08.792Z,57.43
2017-04-21T01:21:09.244Z,57.43
2017-04-21T01:22:09.072Z,57.34
2017-04-21T01:23:09.059Z,57.34
2017-04-21T01:24:09.049Z,57.34
2017-04-21T01:25:09.039Z,57.62
2017-04-21T01:26:09.028Z,57.4
2017-04-21T01:27:09.015Z,57.91
2017-04-21T01:28:09.006Z,57.81
2017-04-21T01:29:08.995Z,57.53
2017-04-21T01:30:08.983Z,57.72
2017-04-21T01:31:08.977Z,57.53
2017-04-21T01:32:08.659Z,57.43
2017-04-21T01:33:08.955Z,57.62
2017-04-21T01:34:08.642Z,57.34
2017-04-21T01:35:08.929Z,57.53
2017-04-21T01:36:08.613Z,57.72
2017-04-21T01:37:08.914Z,57.72
2017-04-21T01:38:08.900Z,57.72
2017-04-21T01:39:08.886Z,57.81
2017-04-21T01:40:08.571Z,57.53
2017-04-21T01:41:08.862Z,57.4
2017-04-21T01:42:08.850Z,57.43
2017-04-21T01:43:08.841Z,57.72
2017-04-21T01:44:08.832Z,57.91
2017-04-21T01:45:08.823Z,57.81
2017-04-21T01:46:08.807Z,57.91
2017-04-21T01:47:08.797Z,57.72
2017-04-21T01:48:08.786Z,57.72
2017-04-21T01:49:08.777Z,57.43
2017-04-21T01:50:08.763Z,57.43
2017-04-21T01:51:08.754Z,57.53
2017-04-21T01:52:08.743Z,57.72
2017-04-21T01:53:08.730Z,57.34
2017-04-21T01:54:08.422Z,57.62
2017-04-21T01:55:08.711Z,57.53
2017-04-21T01:56:08.701Z,57.15
2017-04-21T01:57:08.688Z,57.15
2017-04-21T01:58:08.676Z,57.69
2017-04-21T01:59:08.669Z,57.79
2017-04-21T02:00:08.656Z,57.81
2017-04-21T02:01:08.645Z,58.1
2017-04-21T02:02:08.633Z,57.98
2017-04-21T02:03:08.627Z,58.36
2017-04-21T02:04:08.615Z,58.45
2017-04-21T02:05:08.599Z,58.45
2017-04-21T02:06:08.588Z,58.64
2017-04-21T02:07:08.591Z,58.17
2017-04-21T02:08:08.566Z,57.79
2017-04-21T02:09:08.560Z,57.69
2017-04-21T02:10:08.543Z,58.36
2017-04-21T02:11:08.535Z,58.45
2017-04-21T02:12:08.522Z,58.26
2017-04-21T02:13:08.511Z,58.26
2017-04-21T02:14:08.500Z,58.64
2017-04-21T02:15:08.491Z,58.64
2017-04-21T02:16:08.479Z,58.64
2017-04-21T02:17:08.469Z,58.64
2017-04-21T02:18:08.455Z,58.73
2017-04-21T02:19:08.447Z,58.83
2017-04-21T02:20:08.130Z,59.11
2017-04-21T02:21:08.422Z,58.73
2017-04-21T02:22:08.413Z,59.21
2017-04-21T02:23:08.405Z,58.54
2017-04-21T02:24:08.394Z,59.3
2017-04-21T02:25:08.377Z,58.45
2017-04-21T02:26:08.064Z,58.73
2017-04-21T02:27:08.355Z,58.45
2017-04-21T02:28:08.345Z,58.83
2017-04-21T02:29:08.335Z,58.83
2017-04-21T02:30:08.322Z,59.59
2017-04-21T02:31:08.310Z,59.4
2017-04-21T02:32:07.999Z,59.3
2017-04-21T02:33:08.288Z,59.11
2017-04-21T02:34:07.976Z,59.59
2017-04-21T02:35:08.278Z,59.49
2017-04-21T02:36:08.254Z,59.59
2017-04-21T02:37:08.243Z,59.94
2017-04-21T02:38:08.232Z,59.97
2017-04-21T02:39:08.221Z,60.5
2017-04-21T02:40:08.210Z,60.6
2017-04-21T02:41:08.198Z,60.5
2017-04-21T02:42:08.185Z,60.89
2017-04-21T02:43:08.174Z,61.17
2017-04-21T02:44:08.167Z,61.27
2017-04-21T02:45:08.152Z,61.17
2017-04-21T02:46:07.837Z,61.55
2017-04-21T02:47:08.132Z,61.65
2017-04-21T02:48:08.119Z,61.55
2017-04-21T02:49:08.107Z,62.12
2017-04-21T02:50:08.095Z,61.93
2017-04-21T02:51:08.082Z,62.02
2017-04-21T02:52:08.071Z,62.31
2017-04-21T02:53:08.059Z,62.5
2017-04-21T02:54:07.743Z,62.5
2017-04-21T02:55:08.038Z,62.5
2017-04-21T02:56:08.025Z,62.88
2017-04-21T02:57:08.013Z,63.07
2017-04-21T02:58:08.001Z,62.59
2017-04-21T02:59:07.990Z,63.17
2017-04-21T03:00:07.977Z,63.35
2017-04-21T03:01:07.967Z,63.54
2017-04-21T03:02:07.651Z,63.64
2017-04-21T03:03:07.943Z,63.64
2017-04-21T03:04:07.930Z,63.82
2017-04-21T03:05:07.923Z,63.54
2017-04-21T03:06:07.907Z,64.49
2017-04-21T03:07:07.899Z,64.3
2017-04-21T03:08:07.883Z,64.11
2017-04-21T03:09:07.874Z,64.01
2017-04-21T03:10:07.557Z,64.11
2017-04-21T03:11:08.098Z,64.49
2017-04-21T03:12:07.533Z,63.73
2017-04-21T03:13:07.827Z,64.2
2017-04-21T03:14:07.813Z,64.2
2017-04-21T03:15:07.802Z,64.2
2017-04-21T03:16:08.092Z,64.49
2017-04-21T03:17:07.778Z,64.01
2017-04-21T03:18:07.768Z,63.26
2017-04-21T03:19:07.898Z,63.17
2017-04-21T03:20:07.744Z,62.97
2017-04-21T03:21:07.981Z,63.35
2017-04-21T03:22:07.722Z,63.64
2017-04-21T03:23:07.706Z,63.35
2017-04-21T03:24:07.395Z,63.26
2017-04-21T03:25:07.685Z,63.35
2017-04-21T03:26:07.924Z,64.11
2017-04-21T03:27:07.661Z,63.35
2017-04-21T03:28:07.649Z,64.01
2017-04-21T03:29:07.637Z,64.2
2017-04-21T03:30:07.323Z,64.3
2017-04-21T03:31:07.864Z,64.3
2017-04-21T03:32:07.603Z,63.82
2017-04-21T03:33:07.597Z,64.2
2017-04-21T03:34:07.276Z,64.2
2017-04-21T03:35:07.566Z,64.78
2017-04-21T03:36:07.907Z,64.11
2017-04-21T03:37:07.543Z,64.68
2017-04-21T03:38:07.532Z,64.78
2017-04-21T03:39:07.520Z,64.4
2017-04-21T03:40:07.205Z,64.4
2017-04-21T03:41:07.797Z,64.4
2017-04-21T03:42:07.483Z,64.49
2017-04-21T03:43:07.476Z,64.49
2017-04-21T03:44:07.462Z,64.4
2017-04-21T03:45:07.147Z,64.68
2017-04-21T03:46:07.688Z,65.16
2017-04-21T03:47:07.429Z,65.06
2017-04-21T03:48:07.425Z,64.59
2017-04-21T03:49:07.404Z,64.59
2017-04-21T03:50:07.394Z,64.68
2017-04-21T03:51:07.629Z,63.92
2017-04-21T03:52:07.368Z,64.3
2017-04-21T03:53:07.357Z,63.82
2017-04-21T03:54:07.346Z,63.92
2017-04-21T03:55:07.332Z,64.2
2017-04-21T03:56:07.571Z,64.11
2017-04-21T03:57:07.313Z,64.3
2017-04-21T03:58:07.299Z,64.24
2017-04-21T03:59:07.285Z,63.67
2017-04-21T04:00:07.274Z,63.48
2017-04-21T04:01:07.565Z,63.57
2017-04-21T04:02:07.253Z,63.2
2017-04-21T04:03:07.240Z,63.57
2017-04-21T04:04:07.230Z,63.29
2017-04-21T04:05:07.220Z,63.01
2017-04-21T04:06:07.455Z,63.01
2017-04-21T04:07:07.194Z,63.01
2017-04-21T04:08:07.189Z,62.91
2017-04-21T04:09:07.172Z,62.72
2017-04-21T04:10:07.172Z,62.34
2017-04-21T04:11:07.399Z,62.53
2017-04-21T04:12:07.138Z,62.05
2017-04-21T04:13:07.127Z,62.46
2017-04-21T04:14:07.116Z,61.87
2017-04-21T04:15:07.105Z,61.61
2017-04-21T04:16:07.092Z,61.42
2017-04-21T04:17:07.082Z,61.42
2017-04-21T04:18:07.070Z,61.23
2017-04-21T04:19:07.076Z,61.33
2017-04-21T04:20:07.048Z,61.33
2017-04-21T04:21:07.040Z,60.66
2017-04-21T04:22:07.027Z,60.38
2017-04-21T04:23:07.016Z,60.47
2017-04-21T04:24:07.003Z,60.76
2017-04-21T04:25:06.994Z,60.1
2017-04-21T04:26:06.980Z,59.71
2017-04-21T04:27:06.971Z,59.52
2017-04-21T04:28:06.959Z,59.43
2017-04-21T04:29:06.649Z,59.05
2017-04-21T04:30:06.940Z,59.46
2017-04-21T04:31:06.928Z,59.36
2017-04-21T04:32:06.916Z,58.89
2017-04-21T04:33:06.907Z,58.61
2017-04-21T04:34:06.896Z,58.7
2017-04-21T04:35:06.883Z,59.08
2017-04-21T04:36:06.875Z,58.32
2017-04-21T04:37:06.863Z,58.7
2017-04-21T04:38:06.856Z,58.32
2017-04-21T04:39:06.842Z,58.32
2017-04-21T04:40:06.831Z,58.32
2017-04-21T04:41:06.821Z,58.32
2017-04-21T04:42:06.812Z,58.51
2017-04-21T04:43:06.801Z,58.51
2017-04-21T04:44:06.791Z,57.84
2017-04-21T04:45:06.476Z,57.94
2017-04-21T04:46:06.768Z,57.75
2017-04-21T04:47:06.757Z,58.03
2017-04-21T04:48:06.749Z,58.13
2017-04-21T04:49:06.740Z,57.94
2017-04-21T04:50:06.726Z,58.32
2017-04-21T04:51:06.716Z,58.03
2017-04-21T04:52:06.708Z,58.32
2017-04-21T04:53:06.697Z,57.56
2017-04-21T04:54:06.686Z,57.65
2017-04-21T04:55:06.675Z,57.46
2017-04-21T04:56:06.673Z,56.92
2017-04-21T04:57:06.657Z,57.3
2017-04-21T04:58:06.647Z,56.35
2017-04-21T04:59:06.636Z,56.1
2017-04-21T05:00:06.627Z,55.71
2017-04-21T05:01:06.617Z,54.96
2017-04-21T05:02:06.607Z,54.77
2017-04-21T05:03:06.598Z,53.91
2017-04-21T05:04:06.590Z,53.84
2017-04-21T05:05:06.581Z,53.75
2017-04-21T05:06:06.572Z,53.27
2017-04-21T05:07:06.564Z,53.55
2017-04-21T05:08:06.556Z,52.89
2017-04-21T05:09:06.545Z,52.22
2017-04-21T05:10:06.535Z,52.61
2017-04-21T05:11:06.529Z,51.84
2017-04-21T05:12:06.520Z,51.56
2017-04-21T05:13:06.512Z,51.37
2017-04-21T05:14:06.502Z,51.58
2017-04-21T05:15:06.493Z,51.39
2017-04-21T05:16:06.483Z,51.3
2017-04-21T05:17:06.474Z,51.58
2017-04-21T05:18:06.465Z,51.58
2017-04-21T05:19:06.458Z,51.2
2017-04-21T05:20:06.449Z,51.2
2017-04-21T05:21:06.445Z,51.39
2017-04-21T05:22:06.432Z,51.58
2017-04-21T05:23:06.422Z,51.39
2017-04-21T05:24:06.413Z,51.39
2017-04-21T05:25:06.405Z,51.2
2017-04-21T05:26:06.397Z,51.3
2017-04-21T05:27:06.391Z,51.3
2017-04-21T05:28:06.379Z,51.01
2017-04-21T05:29:06.371Z,51.01
2017-04-21T05:30:06.365Z,50.82
2017-04-21T05:31:06.354Z,50.54
2017-04-21T05:32:06.345Z,50.44
2017-04-21T05:33:06.338Z,50.73
2017-04-21T05:34:06.328Z,50.63
2017-04-21T05:35:06.320Z,50.63
2017-04-21T05:36:06.311Z,50.54
2017-04-21T05:37:06.302Z,50.54
2017-04-21T05:38:06.293Z,50.73
2017-04-21T05:39:06.287Z,50.63
2017-04-21T05:40:05.975Z,50.54
2017-04-21T05:41:06.269Z,49.96
2017-04-21T05:42:06.262Z,49.77
2017-04-21T05:43:06.251Z,49.87
2017-04-21T05:44:06.243Z,50.06
2017-04-21T05:45:06.236Z,49.87
2017-04-21T05:46:06.226Z,49.9
2017-04-21T05:47:06.219Z,49.8
2017-04-21T05:48:06.209Z,49.96
2017-04-21T05:49:06.206Z,49.9
2017-04-21T05:50:06.216Z,49.99
2017-04-21T05:51:06.186Z,49.87
2017-04-21T05:52:06.175Z,49.96
2017-04-21T05:53:06.168Z,49.9
2017-04-21T05:54:06.162Z,50.06
2017-04-21T05:55:05.849Z,49.87
2017-04-21T05:56:06.142Z,49.77
2017-04-21T05:57:06.083Z,49.9
2017-04-21T05:58:06.154Z,49.3
2017-04-21T05:59:06.118Z,49.61
2017-04-21T06:00:06.115Z,49.61
2017-04-21T06:01:06.102Z,49.32
2017-04-21T06:02:06.395Z,49.61
2017-04-21T06:03:06.085Z,49.61
2017-04-21T06:04:06.077Z,49.23
2017-04-21T06:05:06.070Z,49.32
2017-04-21T06:06:06.061Z,49.51
2017-04-21T06:07:06.308Z,49.13
2017-04-21T06:08:06.063Z,49.04
2017-04-21T06:09:06.041Z,49.04
2017-04-21T06:10:06.027Z,48.66
2017-04-21T06:11:06.021Z,48.66
2017-04-21T06:12:06.313Z,48.66
2017-04-21T06:13:06.014Z,48.66
2017-04-21T06:14:05.996Z,48.08
2017-04-21T06:15:05.685Z,47.71
2017-04-21T06:16:05.981Z,47.92
2017-04-21T06:17:06.225Z,48.08
2017-04-21T06:18:05.968Z,48.11
2017-04-21T06:19:05.956Z,47.82
2017-04-21T06:20:05.951Z,47.34
2017-04-21T06:21:05.943Z,47.54
2017-04-21T06:22:06.185Z,47.54
2017-04-21T06:23:05.926Z,47.44
2017-04-21T06:24:05.920Z,47.34
2017-04-21T06:25:05.910Z,47.25
2017-04-21T06:26:05.904Z,47.44
2017-04-21T06:27:06.147Z,47.16
2017-04-21T06:28:05.915Z,47.34
2017-04-21T06:29:05.881Z,47.25
2017-04-21T06:30:05.872Z,47.34
2017-04-21T06:31:05.866Z,46.8
2017-04-21T06:32:06.108Z,46.89
2017-04-21T06:33:05.552Z,47.08
2017-04-21T06:34:05.848Z,46.61
2017-04-21T06:35:05.534Z,46.23
2017-04-21T06:36:05.827Z,45.94
2017-04-21T06:37:05.772Z,46.13
2017-04-21T06:38:05.818Z,46.04
2017-04-21T06:39:05.809Z,46.06
2017-04-21T06:40:05.803Z,45.68
2017-04-21T06:41:05.797Z,45.78
2017-04-21T06:42:06.090Z,45.78
2017-04-21T06:43:05.786Z,45.58
2017-04-21T06:44:05.797Z,45.39
2017-04-21T06:45:05.770Z,45.49
2017-04-21T06:46:05.761Z,45.58
2017-04-21T06:47:06.053Z,45.58
2017-04-21T06:48:05.751Z,45.78
2017-04-21T06:49:05.740Z,45.58
2017-04-21T06:50:05.733Z,45.39
2017-04-21T06:51:05.728Z,45.58
2017-04-21T06:52:05.971Z,45.68
2017-04-21T06:53:05.719Z,45.49
2017-04-21T06:54:05.707Z,45.97
2017-04-21T06:55:05.703Z,45.78
2017-04-21T06:56:05.695Z,45.87
2017-04-21T06:57:05.989Z,45.99
2017-04-21T06:58:05.687Z,45.22
2017-04-21T06:59:05.674Z,45.42
2017-04-21T07:00:05.669Z,45.22
2017-04-21T07:01:05.662Z,44.94
2017-04-21T07:02:05.652Z,44.74
2017-04-21T07:03:05.651Z,44.65
2017-04-21T07:04:05.644Z,44.74
2017-04-21T07:05:05.638Z,44.96
2017-04-21T07:06:05.631Z,44.65
2017-04-21T07:07:05.875Z,44.56
2017-04-21T07:08:05.618Z,44.67
2017-04-21T07:09:05.675Z,44.77
2017-04-21T07:10:05.606Z,44.77
2017-04-21T07:11:05.601Z,44.77
2017-04-21T07:12:05.893Z,44.96
2017-04-21T07:13:05.590Z,45.06
2017-04-21T07:14:05.582Z,45.06
2017-04-21T07:15:05.576Z,45.34
2017-04-21T07:16:05.570Z,44.96
2017-04-21T07:17:05.817Z,44.96
2017-04-21T07:18:05.558Z,45.06
2017-04-21T07:19:05.554Z,45.15
2017-04-21T07:20:05.242Z,44.89
2017-04-21T07:21:05.542Z,44.7
2017-04-21T07:22:05.809Z,44.7
2017-04-21T07:23:05.555Z,44.79
2017-04-21T07:24:05.525Z,44.41
2017-04-21T07:25:05.519Z,44.22
2017-04-21T07:26:05.517Z,44.22
2017-04-21T07:27:05.759Z,44.31
2017-04-21T07:28:05.505Z,44.34
2017-04-21T07:29:05.498Z,44.34
2017-04-21T07:30:05.494Z,43.48
2017-04-21T07:31:05.487Z,43.19
2017-04-21T07:32:05.785Z,43.29
2017-04-21T07:33:05.481Z,43.48
2017-04-21T07:34:05.472Z,43.21
2017-04-21T07:35:05.166Z,43.21
2017-04-21T07:36:05.154Z,42.64
2017-04-21T07:37:05.735Z,42.44
2017-04-21T07:38:05.454Z,42.64
2017-04-21T07:39:05.449Z,42.83
2017-04-21T07:40:05.140Z,42.44
2017-04-21T07:41:05.440Z,41.78
2017-04-21T07:42:05.788Z,42.54
2017-04-21T07:43:05.431Z,42.07
2017-04-21T07:44:05.427Z,42.18
2017-04-21T07:45:05.421Z,42.08
2017-04-21T07:46:05.417Z,41.61
2017-04-21T07:47:05.664Z,41.22
2017-04-21T07:48:05.409Z,41.13
2017-04-21T07:49:05.407Z,41.05
2017-04-21T07:50:05.400Z,40.84
2017-04-21T07:51:05.396Z,40.86
2017-04-21T07:52:05.643Z,40.58
2017-04-21T07:53:05.388Z,40.58
2017-04-21T07:54:05.384Z,39.9
2017-04-21T07:55:05.382Z,40.48
2017-04-21T07:56:05.376Z,40.38
2017-04-21T07:57:05.077Z,40.38
2017-04-21T07:58:05.370Z,40.29
2017-04-21T07:59:05.367Z,40.41
2017-04-21T08:01:52.835Z,39.83
2017-04-21T08:02:02.871Z,39.83
2017-04-21T08:03:02.851Z,39.92
2017-04-21T08:04:02.849Z,40.02
2017-04-21T08:05:02.846Z,40.02
2017-04-21T08:06:02.845Z,40.31
2017-04-21T08:07:02.840Z,40.21
2017-04-21T08:08:02.835Z,39.08
2017-04-21T08:09:02.523Z,39.45
2017-04-21T08:10:02.842Z,39.83
2017-04-21T08:11:02.828Z,40.12
2017-04-21T08:12:02.520Z,40.31
2017-04-21T08:13:02.824Z,40.23
2017-04-21T08:14:02.820Z,40.14
2017-04-21T08:15:02.814Z,40.14
2017-04-21T08:16:02.815Z,40.23
2017-04-21T08:17:02.811Z,39.85
2017-04-21T08:18:02.807Z,39.75
2017-04-21T08:19:02.805Z,39.58
2017-04-21T08:20:02.799Z,39.01
2017-04-21T08:21:02.799Z,38.53
2017-04-21T08:22:02.800Z,38.34
2017-04-21T08:23:03.099Z,38.54
2017-04-21T08:24:02.792Z,39.22
2017-04-21T08:25:02.801Z,39.41
2017-04-21T08:26:02.787Z,39.31
2017-04-21T08:27:02.786Z,38.83
2017-04-21T08:28:03.046Z,38.26
2017-04-21T08:29:02.785Z,38.45
2017-04-21T08:30:02.779Z,38.54
2017-04-21T08:31:02.777Z,39.04
2017-04-21T08:32:02.781Z,39.14
2017-04-21T08:33:03.123Z,38.66
2017-04-21T08:34:02.771Z,37.91
2017-04-21T08:35:02.768Z,37.72
2017-04-21T08:36:02.465Z,37.43
2017-04-21T08:37:02.765Z,37.72
2017-04-21T08:38:03.063Z,37.45
2017-04-21T08:39:02.770Z,37.45
2017-04-21T08:40:02.759Z,37.55
2017-04-21T08:41:02.759Z,37.16
2017-04-21T08:42:02.758Z,37.16
2017-04-21T08:43:03.005Z,37.26
2017-04-21T08:44:02.754Z,37.16
2017-04-21T08:45:02.753Z,37.55
2017-04-21T08:46:02.753Z,38.02
2017-04-21T08:47:02.751Z,37.64
2017-04-21T08:48:03.000Z,37.93
2017-04-21T08:49:02.752Z,38.02
2017-04-21T08:50:02.748Z,37.74
2017-04-21T08:51:02.748Z,37.93
2017-04-21T08:52:02.746Z,37.93
2017-04-21T08:53:02.994Z,37.64
2017-04-21T08:54:02.743Z,38.02
2017-04-21T08:55:02.741Z,38.04
2017-04-21T08:56:02.748Z,38.43
2017-04-21T08:57:02.739Z,38.24
2017-04-21T08:58:04.658Z,38.43
2017-04-21T08:59:02.737Z,38.14
2017-04-21T09:00:02.738Z,37.95
2017-04-21T09:01:02.736Z,37.85
2017-04-21T09:02:02.735Z,37.77
2017-04-21T09:03:02.736Z,37.49
2017-04-21T09:04:02.739Z,37.49
2017-04-21T09:05:02.734Z,37.59
2017-04-21T09:06:02.737Z,37.77
2017-04-21T09:07:02.734Z,37.59
2017-04-21T09:08:02.732Z,38.07
2017-04-21T09:09:02.732Z,37.77
2017-04-21T09:11:02.431Z,37.39
2017-04-21T09:12:02.429Z,37.41
2017-04-21T09:13:02.733Z,37.22
2017-04-21T09:14:02.432Z,37.22
2017-04-21T09:15:02.829Z,37.7
2017-04-21T09:16:02.735Z,37.41
2017-04-21T09:18:02.435Z,36.56
2017-04-21T09:19:02.734Z,35.89
2017-04-21T09:20:02.734Z,36.19
2017-04-21T09:21:02.736Z,35.71
2017-04-21T09:22:02.443Z,35.81
2017-04-21T09:23:02.740Z,35.71
2017-04-21T09:24:02.439Z,35.71
2017-04-21T09:25:02.740Z,35.91
2017-04-21T09:26:02.742Z,35.6
2017-04-21T09:27:02.742Z,35.81
2017-04-21T09:28:02.746Z,35.81
2017-04-21T09:29:02.745Z,35.62
2017-04-21T09:30:02.746Z,35.62
2017-04-21T09:31:07.709Z,35.91
2017-04-21T09:35:36.454Z,35.42
2017-04-21T09:36:27.840Z,36
2017-04-21T09:37:27.839Z,36.1
2017-04-21T09:38:27.838Z,36.21
2017-04-21T09:39:28.090Z,35.83
2017-04-21T09:40:27.839Z,35.64
2017-04-21T09:41:27.840Z,35.73
2017-04-21T09:42:58.305Z,35.91
2017-04-21T09:43:50.924Z,36.1
2017-04-21T09:44:51.224Z,35.91
2017-04-21T09:45:50.926Z,36
2017-04-21T09:46:50.924Z,36.39
2017-04-21T09:47:50.925Z,35.62
2017-04-21T09:48:50.927Z,35.91
2017-04-21T09:49:51.178Z,35.71
2017-04-21T09:50:50.929Z,36.39
2017-04-21T09:53:50.637Z,36.58
2017-04-21T10:03:59.990Z,36.19
2017-04-21T10:09:00.442Z,36.56
2017-04-21T10:10:00.636Z,36.87
2017-04-21T10:11:00.667Z,36.39
2017-04-21T10:12:00.642Z,36.58
2017-04-21T10:13:00.652Z,36.49
2017-04-21T10:14:00.647Z,36.58
2017-04-21T10:15:00.643Z,36.31
2017-04-21T10:16:00.643Z,35.91
2017-04-21T10:17:00.646Z,36.29
2017-04-21T10:18:00.653Z,36.21
2017-04-21T10:19:00.645Z,36.02
2017-04-21T10:20:00.649Z,35.54
2017-04-21T10:21:00.651Z,36.11
2017-04-21T10:22:00.648Z,35.73
2017-04-21T10:23:00.652Z,35.65
2017-04-21T10:24:00.652Z,34.59
2017-04-21T10:25:00.656Z,34.59
2017-04-21T10:26:00.656Z,34.69
2017-04-21T10:27:00.655Z,34.5
2017-04-21T10:28:00.659Z,34.4
2017-04-21T10:29:00.658Z,34.88
2017-04-21T10:30:00.661Z,34.78
2017-04-21T10:31:00.661Z,34.59
2017-04-21T10:32:00.664Z,34.59
2017-04-21T10:33:00.665Z,34.4
2017-04-21T10:34:00.667Z,34.78
2017-04-21T10:35:00.667Z,34.88
2017-04-21T10:36:00.668Z,34.59
2017-04-21T10:37:00.671Z,35.27
2017-04-21T10:38:00.674Z,35.54
2017-04-21T10:39:00.676Z,35.83
2017-04-21T10:40:00.676Z,35.73
2017-04-21T10:41:00.677Z,35.73
2017-04-21T10:42:00.677Z,35.46
2017-04-21T10:43:00.686Z,35.17
2017-04-21T10:44:00.687Z,35.65
2017-04-21T10:45:00.685Z,35.65
2017-04-21T10:46:00.684Z,35.85
2017-04-21T10:47:00.685Z,35.65
2017-04-21T10:48:00.691Z,35.65
2017-04-21T10:49:00.690Z,35.73
2017-04-21T10:50:00.691Z,35.64
2017-04-21T10:51:00.691Z,35.83
2017-04-21T10:52:00.692Z,36.99
2017-04-21T10:53:00.714Z,36.89
2017-04-21T10:54:00.695Z,36.89
2017-04-21T10:55:00.698Z,36.69
2017-04-21T10:56:00.697Z,37.18
2017-04-21T10:57:00.699Z,36.69
2017-04-21T10:58:00.701Z,36.41
2017-04-21T10:59:00.719Z,36.51
2017-04-21T11:00:00.703Z,36.51
2017-04-21T11:01:00.703Z,36.02
2017-04-21T11:02:00.704Z,36.11
2017-04-21T11:03:00.706Z,36.41
2017-04-21T11:04:00.709Z,36.99
2017-04-21T11:05:00.707Z,36.69
2017-04-21T11:06:00.709Z,36.68
2017-04-21T11:07:00.710Z,37.16
2017-04-21T11:08:00.709Z,37.54
2017-04-21T11:09:00.712Z,37.45
2017-04-21T11:10:00.713Z,37.06
2017-04-21T11:11:00.722Z,37.16
2017-04-21T11:12:00.713Z,37.35
2017-04-21T11:13:00.714Z,37.54
2017-04-21T11:14:00.715Z,37.64
2017-04-21T11:15:00.418Z,37.52
2017-04-21T11:16:00.716Z,37.91
2017-04-21T11:17:00.717Z,37.72
2017-04-21T11:18:00.726Z,37.91
2017-04-21T11:19:00.721Z,38.49
2017-04-21T11:20:00.717Z,38.1
2017-04-21T11:21:00.717Z,38.01
2017-04-21T11:22:00.720Z,38.01
2017-04-21T11:23:00.719Z,38.2
2017-04-21T11:24:00.722Z,38.1
2017-04-21T11:25:00.722Z,38.01
2017-04-21T11:26:00.738Z,37.91
2017-04-21T11:27:00.720Z,38.2
2017-04-21T11:28:00.720Z,38.29
2017-04-21T11:29:00.739Z,38.56
2017-04-21T11:30:00.722Z,38.85
2017-04-21T11:31:00.721Z,39.14
2017-04-21T11:32:00.732Z,39.24
2017-04-21T11:33:00.722Z,38.66
2017-04-21T11:34:00.720Z,38.85
2017-04-21T11:35:00.720Z,39.14
2017-04-21T11:36:00.722Z,38.87
2017-04-21T11:37:00.721Z,39.26
2017-04-21T11:38:00.721Z,38.78
2017-04-21T11:39:00.724Z,38.49
2017-04-21T11:40:00.721Z,38.49
2017-04-21T11:41:00.719Z,38.31
2017-04-21T11:42:00.721Z,38.51
2017-04-21T11:43:00.872Z,38.51
2017-04-21T11:44:00.722Z,37.64
2017-04-21T11:45:00.720Z,37.16
2017-04-21T11:46:00.723Z,37.35
2017-04-21T11:47:00.723Z,37.16
2017-04-21T11:48:00.722Z,37.54
2017-04-21T11:49:00.722Z,37.26
2017-04-21T11:50:00.721Z,37.64
2017-04-21T11:51:00.721Z,37.54
2017-04-21T11:52:00.728Z,37.35
2017-04-21T11:53:00.723Z,37.35
2017-04-21T11:54:00.725Z,37.54
2017-04-21T11:55:00.722Z,37.64
2017-04-21T11:56:00.731Z,37.74
2017-04-21T11:57:00.723Z,37.74
2017-04-21T11:58:00.722Z,37.45
2017-04-21T11:59:00.723Z,37.26
2017-04-21T12:00:00.725Z,37.46
2017-04-21T12:01:00.725Z,37.56
2017-04-21T12:02:00.724Z,37.08
2017-04-21T12:03:00.725Z,36.99
2017-04-21T12:04:00.723Z,37.08
2017-04-21T12:05:00.724Z,36.89
2017-04-21T12:06:00.726Z,37.56
2017-04-21T12:07:00.724Z,37.08
2017-04-21T12:08:00.730Z,37.27
2017-04-21T12:09:00.727Z,37.37
2017-04-21T12:10:00.729Z,37.54
2017-04-21T12:11:00.727Z,37.45
2017-04-21T12:12:00.726Z,37.27
2017-04-21T12:13:00.730Z,37.08
2017-04-21T12:14:00.731Z,37.46
2017-04-21T12:15:00.729Z,36.89
2017-04-21T12:16:00.726Z,37.08
2017-04-21T12:17:00.727Z,37.08
2017-04-21T12:18:00.730Z,36.79
2017-04-21T12:19:00.739Z,36.71
2017-04-21T12:20:00.728Z,37.1
2017-04-21T12:21:00.730Z,37.1
2017-04-21T12:22:00.730Z,36.52
2017-04-21T12:23:00.730Z,36.33
2017-04-21T12:24:00.737Z,36.23
2017-04-21T12:25:00.743Z,36.33
2017-04-21T12:26:00.731Z,36.33
2017-04-21T12:27:00.428Z,35.94
2017-04-21T12:28:00.734Z,34.59
2017-04-21T12:29:00.736Z,35.48
2017-04-21T12:30:00.433Z,35.85
2017-04-21T12:31:00.736Z,35.75
2017-04-21T12:32:00.431Z,35.65
2017-04-21T12:33:00.751Z,35.56
2017-04-21T12:34:00.738Z,35.19
2017-04-21T12:35:00.739Z,35.19
2017-04-21T12:36:00.739Z,34.7
2017-04-21T12:37:00.739Z,34.61
2017-04-21T12:38:00.742Z,34.52
2017-04-21T12:39:00.741Z,34.52
2017-04-21T12:40:00.740Z,34.8
2017-04-21T12:41:00.740Z,34.61
2017-04-21T12:42:00.743Z,34.42
2017-04-21T12:43:00.744Z,34.13
2017-04-21T12:44:00.744Z,34.78
2017-04-21T12:45:00.972Z,35.17
2017-04-21T12:46:00.747Z,35.08
2017-04-21T12:47:00.747Z,35.27
2017-04-21T12:48:00.749Z,34.98
2017-04-21T12:49:00.748Z,35.08
2017-04-21T12:50:00.752Z,35.65
2017-04-21T12:51:00.749Z,35.75
2017-04-21T12:52:00.749Z,35.65
2017-04-21T12:53:00.752Z,35.46
2017-04-21T12:54:00.752Z,35.08
2017-04-21T12:55:00.754Z,34.78
2017-04-21T12:56:00.753Z,35.17
2017-04-21T12:57:00.754Z,35.17
2017-04-21T12:58:00.754Z,35.1
2017-04-21T12:59:00.754Z,34.9
2017-04-21T13:00:00.757Z,34.32
2017-04-21T13:01:00.755Z,34.13
2017-04-21T13:02:00.847Z,34.61
2017-04-21T13:03:00.759Z,33.65
2017-04-21T13:04:00.759Z,34.03
2017-04-21T13:05:00.760Z,34.42
2017-04-21T13:06:00.759Z,34.42
2017-04-21T13:07:00.761Z,34.52
2017-04-21T13:08:00.763Z,34.61
2017-04-21T13:09:00.762Z,34.61
2017-04-21T13:10:00.767Z,34.61
2017-04-21T13:11:00.766Z,34.7
2017-04-21T13:12:00.464Z,34.7
2017-04-21T13:13:00.778Z,34.52
2017-04-21T13:14:00.767Z,34.8
2017-04-21T13:15:00.766Z,34.8
2017-04-21T13:16:00.768Z,34.52
2017-04-21T13:17:00.768Z,34.52